Reid Restricted Landing Area

Jump to: basic info | weather | runways | comments

Related pages: nearby airports | nearby navaids | notams | map

Basic information (top)

Codes: 6IL6
Location: lon 42.118401, lat -88.407898, elev 920 ft / 280 m msl
Status: small_airport

Weather (top)

Current conditions for Dupage Airport 15nm (27km) SSE (rec'd 2014/04/19 08:52Z):

KDPA 190852Z 06006KT 10SM CLR 02/M02 A3035 RMK AO2 SLP281 T00221022 55001

Airport forecast for Dupage Airport 15nm (27km) SSE (rec'd 2014/04/19 06:21Z):

TAF KDPA 190520Z 1906/2006 06006KT P6SM SKC 
     FM191600 12009KT P6SM FEW300 
     FM200100 16007KT P6SM SCT300

Runways (top)

E/W: 3,000 x 105 ft (914 x 32 m) — grass — not lighted

N/S: 2,100 x 105 ft (640 x 32 m) — grass — not lighted

Latest comments (top)

No comments yet for Reid Restricted Landing Area

More... (top)

See also NOTAMs and nearby airports and navaids, or visit the Reid Restricted Landing Area page at the main OurAirports website..